Time;durP1;ratioP1;P1;durP2;ratioP2;P2;SDS_P1;SDS_P2;PMS_P1;PMS_P2;Temp;Humidity;BMP_temperature;BMP_pressure;BME280_temperature;BME280_humidity;BME280_pressure;Samples;Min_cycle;Max_cycle;Signal;HPM_P1;HPM_P2
2023/01/11 00:01:05;;;;;;;42.70;25.20;;;;;;;3.74;100.00;98411.36;106707;1254;60408;-77
2023/01/11 00:03:32;;;;;;;42.20;25.30;;;;;;;3.76;100.00;98410.07;106665;1255;59721;-79
2023/01/11 00:05:58;;;;;;;58.10;38.50;;;;;;;3.77;100.00;98404.50;106628;1254;61231;-79
2023/01/11 00:08:25;;;;;;;72.00;41.80;;;;;;;3.77;100.00;98407.64;106569;1254;72600;-76
2023/01/11 00:10:52;;;;;;;56.30;36.60;;;;;;;3.75;100.00;98406.23;106677;1256;61211;-77
2023/01/11 00:13:18;;;;;;;46.40;27.30;;;;;;;3.76;100.00;98402.48;106630;1254;61989;-79
2023/01/11 00:15:45;;;;;;;46.80;26.20;;;;;;;3.74;100.00;98400.48;106684;1254;61007;-79
2023/01/11 00:18:11;;;;;;;43.10;22.90;;;;;;;3.74;100.00;98398.22;106648;1257;59887;-79
2023/01/11 00:20:38;;;;;;;42.60;24.50;;;;;;;3.74;100.00;98399.95;106659;1254;61306;-76
2023/01/11 00:23:05;;;;;;;42.00;25.00;;;;;;;3.73;100.00;98402.37;106615;1257;60787;-79
2023/01/11 00:25:31;;;;;;;52.10;27.90;;;;;;;3.73;100.00;98407.84;106683;1254;59881;-80
2023/01/11 00:27:58;;;;;;;43.20;24.20;;;;;;;3.75;100.00;98409.01;106662;1254;61336;-79
2023/01/11 00:30:24;;;;;;;47.60;26.90;;;;;;;3.76;100.00;98409.48;106655;1254;59890;-79
2023/01/11 00:32:57;;;;;;;42.90;24.50;;;;;;;3.77;100.00;98412.05;106633;1254;62043;-77
2023/01/11 00:35:24;;;;;;;46.20;25.10;;;;;;;3.76;100.00;98415.02;106636;1254;59914;-76
2023/01/11 00:37:52;;;;;;;46.00;25.10;;;;;;;3.77;100.00;98410.48;106651;1252;61370;-79
2023/01/11 00:40:19;;;;;;;43.20;24.00;;;;;;;3.78;100.00;98413.10;106616;1254;74506;-79
2023/01/11 00:48:16;;;;;;;50.50;26.80;;;;;;;3.81;100.00;98410.86;106601;1254;62026;-79
2023/01/11 00:50:42;;;;;;;47.40;27.70;;;;;;;3.80;100.00;98412.29;106613;1254;62040;-77
2023/01/11 00:53:09;;;;;;;52.30;28.30;;;;;;;3.80;100.00;98416.25;106587;1254;60895;-77
2023/01/11 00:55:35;;;;;;;59.60;29.00;;;;;;;3.79;100.00;98415.48;106596;1254;59818;-77
2023/01/11 00:58:02;;;;;;;45.80;26.30;;;;;;;3.79;100.00;98417.30;106628;1253;61227;-77
2023/01/11 01:00:28;;;;;;;47.10;27.10;;;;;;;3.80;100.00;98416.25;106433;1257;62068;-79
2023/01/11 01:02:55;;;;;;;48.50;27.30;;;;;;;3.82;100.00;98416.84;106518;1254;62028;-79
2023/01/11 01:05:21;;;;;;;45.60;22.70;;;;;;;3.83;100.00;98415.73;106524;1254;59883;-76
2023/01/11 01:07:48;;;;;;;57.30;29.30;;;;;;;3.84;100.00;98417.41;106479;1254;61327;-79
2023/01/11 01:10:15;;;;;;;42.90;24.00;;;;;;;3.84;100.00;98421.25;106508;1254;61995;-79
2023/01/11 01:15:26;;;;;;;55.90;29.90;;;;;;;3.74;100.00;98429.11;106511;1254;62034;-77
2023/01/11 01:17:54;;;;;;;55.20;32.30;;;;;;;3.68;100.00;98427.25;106581;1254;74462;-77
2023/01/11 01:20:21;;;;;;;61.40;33.70;;;;;;;3.67;100.00;98422.72;106476;1254;71013;-77
2023/01/11 01:22:48;;;;;;;54.30;31.70;;;;;;;3.69;100.00;98420.67;106456;1254;71156;-78
2023/01/11 01:25:15;;;;;;;59.50;35.40;;;;;;;3.67;100.00;98417.90;106532;1255;62098;-78
2023/01/11 01:27:41;;;;;;;56.30;33.20;;;;;;;3.67;100.00;98422.02;106505;1254;61225;-77
2023/01/11 01:30:08;;;;;;;51.20;29.50;;;;;;;3.68;100.00;98425.86;106545;1254;59862;-79
2023/01/11 01:32:35;;;;;;;60.30;32.80;;;;;;;3.71;100.00;98421.56;106517;1254;71043;-79
2023/01/11 01:35:01;;;;;;;59.50;35.10;;;;;;;3.72;100.00;98422.36;106532;1253;59841;-77
2023/01/11 01:37:27;;;;;;;50.10;30.40;;;;;;;3.75;100.00;98420.98;106507;1257;59873;-77
2023/01/11 01:39:54;;;;;;;54.40;31.70;;;;;;;3.75;100.00;98414.27;106620;1257;60117;-77
2023/01/11 01:42:20;;;;;;;48.60;30.10;;;;;;;3.75;100.00;98414.23;106639;1254;61330;-78
2023/01/11 01:44:59;;;;;;;52.30;28.60;;;;;;;3.76;100.00;98413.38;106638;1254;62139;-77
2023/01/11 01:47:30;;;;;;;64.70;36.10;;;;;;;3.76;100.00;98416.59;106594;1254;72650;-79
2023/01/11 01:49:58;;;;;;;52.70;33.40;;;;;;;3.76;100.00;98421.21;106639;1254;62110;-77
2023/01/11 01:52:27;;;;;;;52.10;29.80;;;;;;;3.77;100.00;98420.21;107032;1252;61212;-77
2023/01/11 01:54:56;;;;;;;56.00;30.10;;;;;;;3.77;100.00;98418.44;106608;1256;74290;-79
2023/01/11 01:57:24;;;;;;;44.70;25.70;;;;;;;3.79;100.00;98422.33;106499;1257;70934;-79
2023/01/11 01:59:51;;;;;;;46.60;26.10;;;;;;;3.79;100.00;98415.98;106602;1254;71302;-79
2023/01/11 02:02:19;;;;;;;44.10;24.40;;;;;;;3.79;100.00;98417.14;106456;1257;59931;-77
2023/01/11 02:04:45;;;;;;;45.40;25.30;;;;;;;3.80;100.00;98419.14;106667;1254;61095;-77
2023/01/11 02:07:13;;;;;;;43.40;26.00;;;;;;;3.80;100.00;98419.30;106609;1254;74616;-79
2023/01/11 02:09:40;;;;;;;47.30;27.50;;;;;;;3.81;100.00;98421.30;106526;1254;69222;-79
2023/01/11 02:12:06;;;;;;;48.10;28.00;;;;;;;3.82;100.00;98417.11;106587;1254;59942;-79
2023/01/11 02:14:33;;;;;;;50.60;28.00;;;;;;;3.83;100.00;98420.20;106616;1253;61309;-79
2023/01/11 02:17:00;;;;;;;58.00;31.00;;;;;;;3.84;100.00;98422.45;106610;1252;59814;-79
2023/01/11 02:19:44;;;;;;;60.90;31.90;;;;;;;3.83;100.00;98423.04;106625;1254;59558;-79
2023/01/11 02:22:16;;;;;;;50.70;28.70;;;;;;;3.83;100.00;98420.28;106669;1254;68956;-77
2023/01/11 02:24:49;;;;;;;48.20;25.30;;;;;;;3.83;100.00;98422.71;106629;1256;72554;-79
2023/01/11 02:27:34;;;;;;;48.30;27.90;;;;;;;3.83;100.00;98423.04;106651;1254;61186;-77
2023/01/11 02:30:08;;;;;;;51.70;26.80;;;;;;;3.83;100.00;98416.91;106656;1253;59763;-79
2023/01/11 02:33:14;;;;;;;54.70;28.70;;;;;;;3.80;100.00;98415.92;106637;1254;74647;-77
2023/01/11 02:36:05;;;;;;;50.30;27.40;;;;;;;3.77;100.00;98410.39;106650;1253;71047;-79
2023/01/11 02:38:36;;;;;;;58.70;32.90;;;;;;;3.78;100.00;98416.36;106574;1257;73017;-79
2023/01/11 02:41:12;;;;;;;60.30;36.20;;;;;;;3.75;100.00;98416.31;106559;1254;61996;-77
2023/01/11 02:46:55;;;;;;;47.00;26.00;;;;;;;3.68;100.00;98424.45;106563;1254;73972;-79
2023/01/11 02:49:32;;;;;;;54.30;28.60;;;;;;;3.63;100.00;98426.60;106574;1254;69972;-77
2023/01/11 02:52:07;;;;;;;79.30;42.80;;;;;;;3.59;100.00;98422.86;106551;1254;72634;-77
2023/01/11 02:54:33;;;;;;;89.60;43.30;;;;;;;3.58;100.00;98424.84;106690;1253;61240;-79
2023/01/11 02:57:00;;;;;;;71.00;36.30;;;;;;;3.58;100.00;98427.90;106561;1254;61899;-79
2023/01/11 02:59:30;;;;;;;64.50;34.70;;;;;;;3.54;100.00;98419.05;106626;1254;60825;-79
2023/01/11 03:01:56;;;;;;;74.40;39.90;;;;;;;3.48;100.00;98417.70;106615;1254;71020;-77
2023/01/11 03:04:28;;;;;;;143.10;82.90;;;;;;;3.46;100.00;98417.33;106653;1253;61246;-77
2023/01/11 03:07:22;;;;;;;84.30;51.40;;;;;;;3.47;100.00;98420.98;106674;1254;61228;-79
2023/01/11 03:10:04;;;;;;;68.50;37.70;;;;;;;3.46;100.00;98417.05;106648;1253;60173;-77
2023/01/11 03:12:51;;;;;;;60.70;33.30;;;;;;;3.45;100.00;98419.89;106670;1256;74559;-77
2023/01/11 03:15:36;;;;;;;60.90;33.70;;;;;;;3.49;100.00;98415.96;106602;1254;69949;-79
2023/01/11 03:18:21;;;;;;;66.70;38.90;;;;;;;3.51;100.00;98415.23;106630;1254;72083;-79
2023/01/11 03:20:50;;;;;;;92.30;53.30;;;;;;;3.50;100.00;98410.34;106536;1254;59830;-79
2023/01/11 03:23:24;;;;;;;76.60;44.00;;;;;;;3.47;100.00;98414.95;106604;1257;61944;-79
2023/01/11 03:26:00;;;;;;;68.70;39.10;;;;;;;3.46;100.00;98415.60;106602;1252;73491;-79
2023/01/11 03:28:45;;;;;;;65.70;37.80;;;;;;;3.46;100.00;98415.77;106728;1254;72237;-79
2023/01/11 03:31:16;;;;;;;66.60;36.50;;;;;;;3.47;100.00;98413.77;106580;1254;72511;-79
2023/01/11 03:34:07;;;;;;;60.60;34.90;;;;;;;3.47;100.00;98411.95;106606;1254;61330;-79
2023/01/11 03:36:43;;;;;;;59.00;34.00;;;;;;;3.44;100.00;98407.14;106609;1253;60167;-77
2023/01/11 03:39:19;;;;;;;75.10;41.30;;;;;;;3.38;100.00;98405.17;106663;1253;73422;-79
2023/01/11 03:41:45;;;;;;;78.20;42.60;;;;;;;3.35;100.00;98407.56;106574;1256;70499;-79
2023/01/11 03:44:13;;;;;;;78.80;44.90;;;;;;;3.37;100.00;98404.58;106653;1254;61311;-79
2023/01/11 03:46:47;;;;;;;88.00;47.60;;;;;;;3.35;100.00;98406.33;106422;1254;61957;-78
2023/01/11 03:49:35;;;;;;;86.40;45.00;;;;;;;3.37;100.00;98408.08;106641;1253;61973;-77
2023/01/11 03:52:02;;;;;;;80.40;43.10;;;;;;;3.39;100.00;98404.42;106612;1254;74702;-78
2023/01/11 03:54:29;;;;;;;81.70;44.50;;;;;;;3.39;100.00;98404.95;106677;1254;69978;-77
2023/01/11 03:57:06;;;;;;;70.30;43.00;;;;;;;3.41;100.00;98407.11;106600;1253;73012;-79
2023/01/11 03:59:32;;;;;;;71.10;41.90;;;;;;;3.45;100.00;98406.26;106510;1253;61925;-77
2023/01/11 04:01:59;;;;;;;71.60;40.90;;;;;;;3.46;100.00;98401.79;106481;1254;59801;-79
2023/01/11 04:04:25;;;;;;;77.00;43.20;;;;;;;3.46;100.00;98401.25;106556;1254;61218;-77
2023/01/11 04:06:51;;;;;;;68.30;39.90;;;;;;;3.48;100.00;98399.70;106613;1253;61319;-77
2023/01/11 04:09:18;;;;;;;66.20;36.90;;;;;;;3.48;100.00;98394.45;106668;1254;60948;-79
2023/01/11 04:11:44;;;;;;;68.20;38.40;;;;;;;3.48;100.00;98396.69;106611;1253;61221;-77
2023/01/11 04:14:11;;;;;;;73.50;40.20;;;;;;;3.48;100.00;98394.83;106617;1254;62104;-77
2023/01/11 04:16:37;;;;;;;76.80;45.70;;;;;;;3.48;100.00;98391.13;106643;1253;61867;-77
2023/01/11 04:19:04;;;;;;;78.30;47.20;;;;;;;3.47;100.00;98394.69;106667;1254;59900;-77
2023/01/11 04:21:30;;;;;;;87.30;48.70;;;;;;;3.45;100.00;98400.48;106628;1254;59891;-77
2023/01/11 04:23:56;;;;;;;80.20;44.70;;;;;;;3.43;100.00;98400.81;106638;1253;61298;-77
2023/01/11 04:26:23;;;;;;;73.10;38.70;;;;;;;3.44;100.00;98397.45;106628;1255;61874;-79
2023/01/11 04:28:49;;;;;;;70.30;39.50;;;;;;;3.42;100.00;98396.10;106637;1257;59870;-76
2023/01/11 04:31:16;;;;;;;82.10;49.80;;;;;;;3.41;100.00;98386.87;106623;1254;59842;-79
2023/01/11 04:33:42;;;;;;;75.50;41.20;;;;;;;3.41;100.00;98383.00;106662;1256;61361;-77
2023/01/11 04:36:09;;;;;;;74.50;41.70;;;;;;;3.42;100.00;98386.09;106676;1252;59779;-78
2023/01/11 04:38:35;;;;;;;71.30;43.20;;;;;;;3.42;100.00;98390.22;106632;1254;60860;-77
2023/01/11 04:43:47;;;;;;;83.40;46.40;;;;;;;3.37;100.00;98389.77;106624;1254;71057;-79
2023/01/11 04:46:13;;;;;;;81.80;44.60;;;;;;;3.36;100.00;98386.52;106626;1253;59857;-78
2023/01/11 04:48:40;;;;;;;85.60;46.50;;;;;;;3.35;100.00;98384.50;106581;1253;60139;-79
2023/01/11 04:51:07;;;;;;;74.40;41.70;;;;;;;3.34;100.00;98385.12;106642;1256;61218;-79
2023/01/11 04:53:33;;;;;;;79.30;41.40;;;;;;;3.31;100.00;98381.55;106667;1256;59877;-77
2023/01/11 04:56:03;;;;;;;70.10;40.40;;;;;;;3.32;100.00;98379.95;106625;1254;60058;-77
2023/01/11 04:58:30;;;;;;;75.00;38.80;;;;;;;3.32;100.00;98380.43;106582;1254;72562;-76
2023/01/11 05:00:56;;;;;;;71.10;38.30;;;;;;;3.31;100.00;98381.17;106645;1253;60943;-77
2023/01/11 05:03:23;;;;;;;66.00;35.20;;;;;;;3.32;100.00;98380.05;106590;1254;62033;-79
2023/01/11 05:05:56;;;;;;;64.30;33.40;;;;;;;3.31;100.00;98384.48;106633;1254;61805;-79
2023/01/11 05:08:23;;;;;;;73.00;43.20;;;;;;;3.32;100.00;98382.89;106609;1254;70036;-79
2023/01/11 05:11:00;;;;;;;91.80;52.60;;;;;;;3.32;100.00;98382.61;106675;1251;72631;-79
2023/01/11 05:13:42;;;;;;;84.90;43.80;;;;;;;3.31;100.00;98381.44;106637;1254;61917;-79
2023/01/11 05:16:19;;;;;;;74.40;40.90;;;;;;;3.31;100.00;98380.61;106646;1253;60872;-77
2023/01/11 05:18:47;;;;;;;71.50;39.90;;;;;;;3.26;100.00;98380.27;106685;1254;74616;-80
2023/01/11 05:21:15;;;;;;;70.70;40.40;;;;;;;3.26;100.00;98379.33;106630;1255;71047;-77
2023/01/11 05:23:42;;;;;;;67.10;40.40;;;;;;;3.26;100.00;98376.80;106685;1252;71384;-77
2023/01/11 05:26:13;;;;;;;68.80;38.10;;;;;;;3.27;100.00;98379.51;106691;1254;61326;-77
2023/01/11 05:28:40;;;;;;;63.60;37.40;;;;;;;3.27;100.00;98384.33;106476;1253;61332;-77
2023/01/11 05:31:06;;;;;;;61.70;35.70;;;;;;;3.28;100.00;98386.05;106618;1254;73446;-79
2023/01/11 05:33:33;;;;;;;60.80;31.50;;;;;;;3.28;100.00;98379.58;106625;1253;61304;-77
2023/01/11 05:36:00;;;;;;;61.90;33.90;;;;;;;3.25;100.00;98383.36;106649;1254;61570;-79
2023/01/11 05:38:27;;;;;;;64.50;34.30;;;;;;;3.22;100.00;98383.96;106704;1253;61372;-76
2023/01/11 05:40:54;;;;;;;69.90;36.40;;;;;;;3.22;100.00;98385.79;106599;1253;61346;-79
2023/01/11 05:43:21;;;;;;;65.80;36.00;;;;;;;3.23;100.00;98383.54;106553;1254;73427;-77
2023/01/11 05:45:47;;;;;;;71.80;35.50;;;;;;;3.24;100.00;98378.75;106595;1253;59799;-77
2023/01/11 05:48:14;;;;;;;75.20;40.20;;;;;;;3.27;100.00;98382.49;106552;1256;61340;-77
2023/01/11 05:50:40;;;;;;;76.60;37.70;;;;;;;3.28;100.00;98379.16;106642;1253;61377;-76
2023/01/11 05:53:07;;;;;;;72.10;40.00;;;;;;;3.28;100.00;98379.33;106603;1252;59843;-77
2023/01/11 05:55:33;;;;;;;92.00;54.30;;;;;;;3.30;100.00;98378.02;106650;1256;59866;-79
2023/01/11 05:57:59;;;;;;;68.30;38.80;;;;;;;3.26;100.00;98369.14;106617;1254;59732;-79
2023/01/11 06:00:26;;;;;;;72.50;36.30;;;;;;;3.24;100.00;98366.35;106526;1253;59847;-79
2023/01/11 06:02:52;;;;;;;66.60;37.10;;;;;;;3.22;100.00;98358.46;107056;1252;60821;-77
2023/01/11 06:05:19;;;;;;;72.00;42.20;;;;;;;3.16;100.00;98360.64;106595;1254;61337;-77
2023/01/11 06:07:45;;;;;;;69.30;35.70;;;;;;;3.12;100.00;98354.54;106501;1253;61215;-79
2023/01/11 06:10:11;;;;;;;63.30;34.90;;;;;;;3.11;100.00;98352.58;106496;1253;62135;-77
2023/01/11 06:12:38;;;;;;;65.00;34.00;;;;;;;3.09;100.00;98351.78;106495;1253;59871;-77
2023/01/11 06:15:05;;;;;;;67.00;34.00;;;;;;;3.10;100.00;98352.55;106553;1257;61458;-77
2023/01/11 06:17:31;;;;;;;81.90;40.20;;;;;;;3.11;100.00;98352.05;106556;1253;59889;-77
2023/01/11 06:19:58;;;;;;;76.30;41.70;;;;;;;3.09;100.00;98355.00;106535;1254;59898;-77
2023/01/11 06:22:25;;;;;;;77.40;40.90;;;;;;;3.07;100.00;98350.27;106456;1254;59913;-77
2023/01/11 06:24:51;;;;;;;78.40;38.40;;;;;;;3.09;100.00;98352.69;106523;1257;61297;-77
2023/01/11 06:27:17;;;;;;;76.90;38.40;;;;;;;3.07;100.00;98355.09;106660;1253;61212;-77
2023/01/11 06:29:44;;;;;;;89.40;45.20;;;;;;;3.05;100.00;98353.59;106599;1253;59815;-79
2023/01/11 06:32:10;;;;;;;76.80;42.80;;;;;;;3.07;100.00;98351.05;106564;1253;61393;-79
2023/01/11 06:34:37;;;;;;;79.30;39.30;;;;;;;3.09;100.00;98348.04;106476;1253;59896;-77
2023/01/11 06:37:03;;;;;;;69.30;37.10;;;;;;;3.08;100.00;98346.36;106544;1253;62165;-78
2023/01/11 06:39:29;;;;;;;72.80;36.60;;;;;;;3.08;100.00;98347.83;106494;1254;59800;-79
2023/01/11 06:41:56;;;;;;;80.30;38.60;;;;;;;3.06;100.00;98349.70;106682;1253;61052;-76
2023/01/11 06:44:22;;;;;;;66.80;33.00;;;;;;;3.05;100.00;98352.39;106526;1253;59833;-77
2023/01/11 06:46:48;;;;;;;69.30;32.90;;;;;;;3.00;100.00;98348.58;106501;1253;61341;-76
2023/01/11 06:49:15;;;;;;;72.10;36.20;;;;;;;2.99;100.00;98346.45;106564;1256;61733;-77
2023/01/11 06:51:42;;;;;;;73.90;37.70;;;;;;;3.01;100.00;98344.14;106632;1254;61985;-77
2023/01/11 06:54:09;;;;;;;73.70;34.90;;;;;;;3.02;100.00;98348.56;106640;1254;61982;-77
2023/01/11 06:56:36;;;;;;;74.40;37.50;;;;;;;3.04;100.00;98352.24;106631;1254;60152;-77
2023/01/11 06:59:02;;;;;;;78.20;36.80;;;;;;;3.04;100.00;98348.95;106768;1253;59833;-79
2023/01/11 07:01:29;;;;;;;72.20;35.70;;;;;;;3.06;100.00;98349.79;106584;1253;138979;-79
2023/01/11 07:03:55;;;;;;;79.10;36.30;;;;;;;3.03;100.00;98345.50;106726;1252;61218;-77
2023/01/11 07:06:23;;;;;;;80.00;38.90;;;;;;;3.02;100.00;98351.95;106670;1253;59816;-79
2023/01/11 07:08:49;;;;;;;91.40;44.20;;;;;;;3.00;100.00;98351.84;106810;1255;75717;-77
2023/01/11 07:11:15;;;;;;;84.00;39.40;;;;;;;3.03;100.00;98350.94;106881;1256;59837;-77
2023/01/11 07:13:42;;;;;;;75.40;37.70;;;;;;;3.06;100.00;98347.27;106704;1256;59890;-77
2023/01/11 07:16:08;;;;;;;76.00;35.80;;;;;;;3.08;100.00;98347.88;107126;1252;61215;-77
2023/01/11 07:18:36;;;;;;;72.60;36.00;;;;;;;3.08;100.00;98340.88;108878;1254;59832;-79
2023/01/11 07:21:02;;;;;;;70.00;34.70;;;;;;;3.06;100.00;98338.95;107039;1253;74523;-77
2023/01/11 07:23:29;;;;;;;67.80;33.60;;;;;;;3.05;100.00;98343.13;106997;1253;69891;-79
2023/01/11 07:25:55;;;;;;;64.10;34.50;;;;;;;3.06;100.00;98342.53;107137;1253;61544;-76
2023/01/11 07:28:22;;;;;;;74.20;35.80;;;;;;;3.03;100.00;98345.55;108953;1253;59168;-76
2023/01/11 07:30:49;;;;;;;74.30;39.10;;;;;;;3.01;100.00;98345.49;109415;1254;59046;-76
2023/01/11 07:33:15;;;;;;;75.10;37.80;;;;;;;3.04;100.00;98347.76;109445;1254;73608;-79
2023/01/11 07:35:41;;;;;;;71.30;38.40;;;;;;;3.09;100.00;98344.86;109382;1251;59074;-79
2023/01/11 07:38:10;;;;;;;74.00;40.00;;;;;;;3.16;100.00;98344.52;108910;1252;60370;-77
2023/01/11 07:40:36;;;;;;;87.80;42.30;;;;;;;3.22;100.00;98340.73;108371;1254;59866;-79
2023/01/11 07:43:17;;;;;;;84.90;41.30;;;;;;;3.25;100.00;98338.36;108269;1253;59796;-79
2023/01/11 07:45:46;;;;;;;79.50;40.50;;;;;;;3.19;100.00;98335.14;109288;1253;74123;-76
2023/01/11 07:48:13;;;;;;;82.70;40.20;;;;;;;3.20;100.00;98339.02;109308;1254;71719;-77
2023/01/11 07:50:40;;;;;;;83.50;44.00;;;;;;;3.18;100.00;98332.15;109127;1253;71560;-79
2023/01/11 07:53:07;;;;;;;74.60;41.00;;;;;;;3.18;100.00;98329.59;109099;1253;59617;-77
2023/01/11 07:55:34;;;;;;;76.20;38.50;;;;;;;3.20;100.00;98328.88;109215;1252;60022;-79
2023/01/11 07:58:02;;;;;;;81.00;41.60;;;;;;;3.21;100.00;98332.55;109255;1252;73418;-79
2023/01/11 08:00:29;;;;;;;72.50;35.60;;;;;;;3.26;100.00;98330.77;109368;1254;71408;-79
2023/01/11 08:02:55;;;;;;;63.10;34.10;;;;;;;3.26;100.00;98329.17;109266;1252;72564;-79
2023/01/11 08:05:23;;;;;;;76.00;37.10;;;;;;;3.20;100.00;98323.31;107563;1254;60929;-79
2023/01/11 08:07:49;;;;;;;65.60;34.10;;;;;;;3.22;100.00;98321.05;107909;1253;59268;-77
2023/01/11 08:10:16;;;;;;;68.50;36.00;;;;;;;3.22;100.00;98315.86;106782;1253;59966;-77
2023/01/11 08:15:30;;;;;;;61.60;33.80;;;;;;;3.18;100.00;98308.42;107531;1254;71993;-76
2023/01/11 08:17:57;;;;;;;66.40;35.10;;;;;;;3.18;100.00;98306.82;109154;1254;60389;-79
2023/01/11 08:20:23;;;;;;;59.70;32.00;;;;;;;3.22;100.00;98305.85;109373;1253;59016;-79
2023/01/11 08:22:49;;;;;;;76.90;40.50;;;;;;;3.26;100.00;98304.41;109247;1253;59490;-79
2023/01/11 08:25:16;;;;;;;62.50;34.60;;;;;;;3.25;100.00;98304.75;109337;1253;59255;-76
2023/01/11 08:27:43;;;;;;;66.30;35.60;;;;;;;3.22;100.00;98301.84;108544;1253;59441;-79
2023/01/11 08:30:10;;;;;;;63.90;34.90;;;;;;;3.26;100.00;98302.64;108081;1252;60325;-76
2023/01/11 08:32:37;;;;;;;66.20;38.30;;;;;;;3.30;100.00;98293.76;107030;1252;60292;-79
2023/01/11 08:35:04;;;;;;;62.90;36.90;;;;;;;3.34;100.00;98294.53;108347;1253;59796;-79
2023/01/11 08:37:30;;;;;;;80.60;42.10;;;;;;;3.39;100.00;98295.40;108551;1253;70859;-79
2023/01/11 08:39:57;;;;;;;70.60;41.10;;;;;;;3.43;100.00;98292.93;108473;1252;59811;-79
2023/01/11 08:42:23;;;;;;;73.20;41.40;;;;;;;3.40;100.00;98286.53;108138;1253;59759;-79
2023/01/11 08:44:50;;;;;;;68.40;37.20;;;;;;;3.40;100.00;98290.92;107954;1253;60021;-76
2023/01/11 08:47:16;;;;;;;81.50;45.70;;;;;;;3.43;100.00;98294.55;108187;1255;59697;-77
2023/01/11 08:49:43;;;;;;;87.20;43.30;;;;;;;3.46;100.00;98293.70;107202;1253;71047;-79
2023/01/11 08:52:13;;;;;;;83.40;44.80;;;;;;;3.46;100.00;98293.34;106837;1254;72573;-79
2023/01/11 08:54:40;;;;;;;94.10;50.90;;;;;;;3.47;100.00;98298.23;106659;1254;60139;-76
2023/01/11 08:57:06;;;;;;;82.20;45.40;;;;;;;3.49;100.00;98298.16;107754;1255;61982;-77
2023/01/11 08:59:33;;;;;;;112.20;60.10;;;;;;;3.46;100.00;98298.48;107085;1253;61107;-76
2023/01/11 09:02:01;;;;;;;90.00;48.80;;;;;;;3.47;100.00;98296.20;106971;1253;71208;-77
2023/01/11 09:04:27;;;;;;;82.30;46.00;;;;;;;3.53;100.00;98293.74;107030;1255;71347;-79
2023/01/11 09:06:54;;;;;;;73.10;41.90;;;;;;;3.60;100.00;98286.09;107818;1253;61634;-79
2023/01/11 09:09:21;;;;;;;85.70;48.40;;;;;;;3.68;100.00;98280.41;108034;1254;59504;-76
2023/01/11 09:11:53;;;;;;;71.30;37.70;;;;;;;3.75;100.00;98279.61;107453;1254;74536;-76
2023/01/11 09:14:20;;;;;;;67.10;36.50;;;;;;;3.79;100.00;98276.45;106933;1253;70961;-76
2023/01/11 09:16:47;;;;;;;67.20;36.20;;;;;;;3.84;100.00;98271.91;107355;1253;70613;-77
2023/01/11 09:19:14;;;;;;;69.30;38.30;;;;;;;3.90;100.00;98273.60;107578;1252;59761;-79
2023/01/11 09:21:46;;;;;;;77.80;46.90;;;;;;;3.91;100.00;98270.48;106865;1256;60849;-77
2023/01/11 09:24:13;;;;;;;85.20;49.00;;;;;;;3.96;100.00;98269.27;106681;1254;74463;-77
2023/01/11 09:26:42;;;;;;;72.00;43.30;;;;;;;4.01;100.00;98265.45;107256;1253;71431;-77
2023/01/11 09:29:09;;;;;;;94.20;55.50;;;;;;;4.04;100.00;98264.80;107876;1254;72532;-79
2023/01/11 09:31:35;;;;;;;83.10;44.20;;;;;;;4.09;100.00;98266.20;107699;1253;61561;-79
2023/01/11 09:34:03;;;;;;;71.60;41.60;;;;;;;4.15;100.00;98257.50;107701;1253;61167;-76
2023/01/11 09:36:31;;;;;;;72.10;39.90;;;;;;;4.20;100.00;98256.86;107312;1253;76156;-77
2023/01/11 09:39:01;;;;;;;71.60;41.40;;;;;;;4.21;100.00;98253.20;108173;1253;71434;-80
2023/01/11 09:42:06;;;;;;;58.40;34.00;;;;;;;4.27;100.00;98252.40;107413;1254;72662;-79
2023/01/11 09:44:34;;;;;;;55.30;30.10;;;;;;;4.37;100.00;98246.40;107247;1255;61942;-77
2023/01/11 09:47:12;;;;;;;136.00;73.90;;;;;;;4.42;100.00;98241.52;107468;1254;61231;-77
2023/01/11 09:49:40;;;;;;;67.30;38.70;;;;;;;4.50;100.00;98243.69;107114;1254;73695;-79
2023/01/11 09:52:31;;;;;;;66.80;40.60;;;;;;;4.57;100.00;98244.54;107164;1254;70174;-76
2023/01/11 09:54:58;;;;;;;69.40;40.30;;;;;;;4.66;100.00;98242.55;106897;1253;73803;-77
2023/01/11 09:57:33;;;;;;;66.80;39.40;;;;;;;4.74;100.00;98242.17;107426;1253;61227;-77
2023/01/11 10:00:31;;;;;;;58.70;37.10;;;;;;;4.78;100.00;98243.38;107097;1255;59758;-76
2023/01/11 10:03:09;;;;;;;53.40;30.00;;;;;;;4.83;100.00;98239.90;107022;1253;74508;-79
2023/01/11 10:06:08;;;;;;;55.30;34.10;;;;;;;4.91;100.00;98239.79;107048;1253;71192;-76
2023/01/11 10:08:57;;;;;;;44.10;25.80;;;;;;;4.98;100.00;98242.66;107746;1253;71363;-79
2023/01/11 10:11:36;;;;;;;41.40;24.30;;;;;;;4.99;100.00;98234.42;107114;1253;61881;-79
2023/01/11 10:14:40;;;;;;;46.80;26.90;;;;;;;5.02;100.00;98225.83;107348;1253;61376;-77
2023/01/11 10:17:07;;;;;;;61.20;34.50;;;;;;;5.10;100.00;98219.96;107554;1253;74584;-77
2023/01/11 10:19:37;;;;;;;53.30;33.50;;;;;;;5.17;100.00;98213.91;107947;1253;60705;-79
2023/01/11 10:22:23;;;;;;;47.20;26.50;;;;;;;5.21;100.00;98204.73;107561;1253;72549;-76
2023/01/11 10:24:59;;;;;;;41.80;24.40;;;;;;;5.25;100.00;98193.64;107160;1253;61979;-79
2023/01/11 10:27:34;;;;;;;40.00;23.30;;;;;;;5.30;100.00;98192.55;108240;1253;60313;-79
2023/01/11 10:30:12;;;;;;;45.00;24.20;;;;;;;5.30;100.00;98192.70;108139;1252;73403;-77
2023/01/11 10:35:57;;;;;;;40.00;23.60;;;;;;;5.38;100.00;98186.24;109025;1252;71496;-80
2023/01/11 10:38:42;;;;;;;39.60;23.20;;;;;;;5.37;100.00;98183.86;109258;1252;59273;-80
2023/01/11 10:41:20;;;;;;;40.80;22.00;;;;;;;5.36;100.00;98187.92;107681;1254;59605;-77
2023/01/11 10:43:54;;;;;;;40.80;22.10;;;;;;;5.31;100.00;98191.40;109178;1254;73692;-79
2023/01/11 10:46:21;;;;;;;35.40;21.80;;;;;;;5.31;100.00;98193.44;107445;1252;71419;-77
2023/01/11 10:48:47;;;;;;;66.70;34.90;;;;;;;5.33;100.00;98195.46;107019;1253;71479;-77
2023/01/11 10:51:25;;;;;;;48.50;26.90;;;;;;;5.35;100.00;98199.58;107070;1253;61215;-76
2023/01/11 10:54:16;;;;;;;39.30;21.50;;;;;;;5.41;100.00;98201.55;106765;1253;61235;-79
2023/01/11 10:56:58;;;;;;;39.20;21.60;;;;;;;5.46;100.00;98198.58;108142;1253;75033;-79
2023/01/11 10:59:52;;;;;;;33.10;19.10;;;;;;;5.43;100.00;98193.74;107474;1253;70065;-79
2023/01/11 11:02:34;;;;;;;33.90;19.40;;;;;;;5.44;100.00;98190.16;107140;1253;72536;-79
2023/01/11 11:05:36;;;;;;;28.90;16.40;;;;;;;5.45;100.00;98181.62;107232;1253;59712;-79
2023/01/11 11:08:15;;;;;;;22.60;13.30;;;;;;;5.46;100.00;98177.45;107605;1254;59850;-76
2023/01/11 11:11:01;;;;;;;;;;;;;;;5.43;100.00;98174.98;107412;1253;73730;-79
2023/01/11 11:14:12;;;;;;;13.90;8.50;;;;;;;5.44;100.00;98179.08;107571;1253;70565;-76
2023/01/11 11:16:41;;;;;;;18.80;10.80;;;;;;;5.48;100.00;98183.24;107386;1253;71501;-76
2023/01/11 11:19:09;;;;;;;19.40;10.90;;;;;;;5.54;100.00;98173.45;107468;1253;59257;-76
2023/01/11 11:21:37;;;;;;;18.40;10.10;;;;;;;5.60;100.00;98175.23;106836;1253;59520;-79
2023/01/11 11:24:31;;;;;;;19.40;9.70;;;;;;;5.65;100.00;98171.59;107232;1253;73439;-79
2023/01/11 11:27:17;;;;;;;21.60;12.80;;;;;;;5.73;100.00;98172.15;109269;1252;69799;-76
2023/01/11 11:29:48;;;;;;;24.10;12.90;;;;;;;5.69;100.00;98173.60;107414;1258;70741;-76
2023/01/11 11:32:34;;;;;;;25.00;13.30;;;;;;;5.70;100.00;98175.70;106573;1253;61199;-76
2023/01/11 11:35:00;;;;;;;11.90;8.30;;;;;;;5.75;100.00;98174.17;106948;1253;60278;-76
2023/01/11 11:37:31;;;;;;;11.80;7.50;;;;;;;5.80;100.00;98172.90;107817;1256;74513;-77
2023/01/11 11:39:57;;;;;;;13.70;8.40;;;;;;;5.83;100.00;98171.56;107368;1253;71146;-79
2023/01/11 11:42:24;;;;;;;13.10;7.10;;;;;;;5.82;100.00;98164.52;106825;1253;59779;-76
2023/01/11 11:45:14;;;;;;;15.20;8.40;;;;;;;5.81;100.00;98154.44;106878;1253;61218;-78